createdAt,value
2023-05-01T00:00:24.374Z,13.60
2023-05-01T00:02:52.228Z,13.60
2023-05-01T00:05:19.636Z,13.60
2023-05-01T00:10:28.850Z,13.70
2023-05-01T00:12:56.033Z,13.70
2023-05-01T00:15:23.685Z,13.60
2023-05-01T00:17:51.537Z,13.50
2023-05-01T00:20:19.097Z,13.70
2023-05-01T00:22:47.151Z,13.50
2023-05-01T00:25:14.523Z,13.50
2023-05-01T00:27:42.817Z,13.50
2023-05-01T00:35:16.228Z,13.50
2023-05-01T00:37:43.804Z,13.50
2023-05-01T00:40:11.574Z,13.40
2023-05-01T00:42:39.973Z,13.30
2023-05-01T00:45:08.364Z,13.20
2023-05-01T00:47:36.385Z,13.30
2023-05-01T00:50:04.598Z,13.20
2023-05-01T00:55:14.328Z,13.00
2023-05-01T00:57:41.635Z,12.90
2023-05-01T01:00:12.172Z,12.80
2023-05-01T01:02:39.429Z,12.80
2023-05-01T01:05:06.789Z,12.80
2023-05-01T01:07:42.155Z,12.80
2023-05-01T01:10:17.626Z,12.70
2023-05-01T01:20:50.011Z,12.90
2023-05-01T01:23:53.203Z,12.80
2023-05-01T01:26:52.171Z,12.60
2023-05-01T01:29:56.399Z,12.60
2023-05-01T01:32:56.433Z,12.50
2023-05-01T01:35:27.180Z,12.50
2023-05-01T01:43:04.361Z,12.40
2023-05-01T01:45:37.624Z,12.40
2023-05-01T01:48:07.627Z,12.40
2023-05-01T01:50:38.867Z,12.50
2023-05-01T01:53:08.750Z,12.60
2023-05-01T01:55:38.340Z,12.50
2023-05-01T01:58:09.895Z,12.50
2023-05-01T02:03:40.751Z,12.50
2023-05-01T02:06:10.968Z,12.60
2023-05-01T02:08:38.295Z,12.40
2023-05-01T02:11:06.382Z,12.40
2023-05-01T02:13:33.725Z,12.50
2023-05-01T02:16:03.414Z,12.60
2023-05-01T02:18:31.762Z,12.60
2023-05-01T02:23:45.150Z,12.60
2023-05-01T02:26:16.634Z,12.70
2023-05-01T02:28:43.888Z,12.70
2023-05-01T02:31:11.676Z,12.60
2023-05-01T02:33:39.499Z,12.70
2023-05-01T02:36:07.754Z,12.60
2023-05-01T02:38:35.174Z,12.70
2023-05-01T02:43:47.261Z,12.70
2023-05-01T02:46:16.644Z,12.80
2023-05-01T02:48:44.399Z,12.60
2023-05-01T02:51:13.183Z,12.70
2023-05-01T02:53:40.669Z,12.90
2023-05-01T02:56:08.665Z,12.60
2023-05-01T02:58:36.663Z,12.50
2023-05-01T03:08:48.347Z,12.30
2023-05-01T03:11:15.874Z,12.40
2023-05-01T03:13:44.182Z,12.40
2023-05-01T03:16:11.516Z,12.40
2023-05-01T03:18:39.229Z,12.40
2023-05-01T03:21:06.579Z,12.40
2023-05-01T03:23:37.774Z,12.30
2023-05-01T03:29:37.571Z,12.40
2023-05-01T03:32:05.350Z,12.30
2023-05-01T03:34:32.661Z,12.40
2023-05-01T03:37:00.118Z,12.30
2023-05-01T03:39:27.014Z,12.20
2023-05-01T03:41:54.511Z,12.20
2023-05-01T03:44:22.519Z,12.30
2023-05-01T03:51:55.987Z,12.30
2023-05-01T03:54:23.410Z,12.30
2023-05-01T03:56:51.303Z,12.20
2023-05-01T03:59:18.433Z,12.20
2023-05-01T04:01:45.945Z,12.20
2023-05-01T04:04:13.366Z,12.20
2023-05-01T04:06:40.603Z,12.20
2023-05-01T04:11:53.234Z,12.40
2023-05-01T04:14:20.638Z,12.20
2023-05-01T04:16:48.098Z,12.20
2023-05-01T04:19:15.526Z,12.40
2023-05-01T04:21:42.943Z,12.30
2023-05-01T04:24:13.261Z,12.20
2023-05-01T04:26:42.161Z,12.20
2023-05-01T04:32:04.758Z,12.20
2023-05-01T04:34:32.447Z,12.10
2023-05-01T04:37:01.387Z,12.10
2023-05-01T04:39:28.544Z,12.10
2023-05-01T04:41:55.739Z,12.00
2023-05-01T04:44:22.690Z,12.00
2023-05-01T04:46:50.535Z,12.00
2023-05-01T04:57:00.368Z,12.00
2023-05-01T04:59:27.822Z,11.90
2023-05-01T05:01:55.254Z,11.80
2023-05-01T05:04:22.902Z,11.70
2023-05-01T05:06:50.478Z,11.40
2023-05-01T05:09:20.045Z,11.40
2023-05-01T05:11:47.562Z,11.50
2023-05-01T05:20:08.136Z,11.10
2023-05-01T05:22:37.226Z,11.10
2023-05-01T05:25:06.088Z,11.10
2023-05-01T05:27:37.612Z,11.00
2023-05-01T05:30:05.624Z,10.90
2023-05-01T05:32:33.176Z,10.90
2023-05-01T05:35:00.929Z,10.80
2023-05-01T05:40:29.907Z,11.00
2023-05-01T05:42:57.308Z,11.00
2023-05-01T05:45:24.406Z,11.00
2023-05-01T05:47:51.738Z,11.10
2023-05-01T05:50:19.184Z,11.00
2023-05-01T05:52:46.380Z,11.00
2023-05-01T05:55:17.037Z,11.20
2023-05-01T05:57:46.336Z,11.20
2023-05-01T06:05:12.275Z,11.40
2023-05-01T06:07:39.831Z,11.60
2023-05-01T06:10:08.542Z,11.60
2023-05-01T06:12:37.543Z,11.50
2023-05-01T06:15:07.726Z,11.50
2023-05-01T06:17:36.960Z,11.60
2023-05-01T06:20:05.707Z,11.70
2023-05-01T06:25:56.512Z,11.80
2023-05-01T06:28:23.388Z,11.80
2023-05-01T06:30:50.422Z,11.90
2023-05-01T06:33:17.452Z,11.80
2023-05-01T06:35:44.260Z,11.90
2023-05-01T06:38:11.211Z,12.00
2023-05-01T06:40:38.576Z,11.90
2023-05-01T06:45:55.995Z,12.00
2023-05-01T06:48:23.376Z,12.10
2023-05-01T06:50:50.290Z,12.20
2023-05-01T06:53:18.588Z,12.40
2023-05-01T06:55:45.866Z,12.70
2023-05-01T06:58:23.615Z,12.80
2023-05-01T07:00:52.486Z,13.10
2023-05-01T07:08:24.459Z,13.20
2023-05-01T07:10:53.222Z,13.40
2023-05-01T07:13:20.679Z,13.50
2023-05-01T07:15:48.214Z,13.50
2023-05-01T07:18:16.722Z,13.50
2023-05-01T07:20:44.212Z,13.50
2023-05-01T07:23:13.060Z,13.70
2023-05-01T07:28:23.217Z,13.80
2023-05-01T07:30:50.867Z,13.90
2023-05-01T07:33:18.047Z,14.00
2023-05-01T07:35:45.271Z,14.10
2023-05-01T07:38:13.608Z,14.30
2023-05-01T07:40:40.522Z,14.30
2023-05-01T07:43:10.683Z,14.40
2023-05-01T07:48:35.066Z,14.30
2023-05-01T07:51:03.609Z,14.40
2023-05-01T07:53:31.766Z,14.70
2023-05-01T07:56:06.549Z,14.80
2023-05-01T07:58:33.439Z,15.00
2023-05-01T08:01:00.947Z,14.90
2023-05-01T08:03:29.365Z,14.80
2023-05-01T08:08:37.756Z,14.90
2023-05-01T08:11:05.071Z,15.10
2023-05-01T08:13:32.301Z,15.10
2023-05-01T08:16:02.926Z,15.40
2023-05-01T08:18:30.374Z,15.50
2023-05-01T08:20:57.633Z,15.80
2023-05-01T08:23:24.951Z,15.80
2023-05-01T08:31:00.110Z,16.10
2023-05-01T08:33:27.896Z,16.40
2023-05-01T08:35:55.387Z,16.50
2023-05-01T08:38:22.578Z,16.50
2023-05-01T08:40:56.302Z,16.70
2023-05-01T08:43:24.464Z,16.80
2023-05-01T08:45:53.823Z,16.70
2023-05-01T08:51:22.401Z,16.90
2023-05-01T08:53:51.640Z,17.30
2023-05-01T08:56:19.638Z,17.50
2023-05-01T08:58:50.515Z,17.90
2023-05-01T09:01:19.825Z,18.00
2023-05-01T09:03:49.901Z,18.10
2023-05-01T09:06:21.421Z,18.00
2023-05-01T09:16:45.676Z,18.40
2023-05-01T09:19:13.026Z,18.80
2023-05-01T09:21:41.085Z,18.90
2023-05-01T09:24:08.467Z,19.00
2023-05-01T09:26:40.248Z,19.00
2023-05-01T09:29:09.625Z,19.30
2023-05-01T09:31:37.215Z,19.50
2023-05-01T09:37:02.921Z,19.70
2023-05-01T09:39:30.068Z,19.80
2023-05-01T09:41:57.328Z,20.00
2023-05-01T09:44:25.131Z,20.10
2023-05-01T09:46:52.499Z,20.10
2023-05-01T09:49:20.130Z,20.00
2023-05-01T09:51:48.128Z,20.10
2023-05-01T09:57:04.786Z,20.20
2023-05-01T09:59:34.297Z,20.40
2023-05-01T10:02:01.945Z,20.30
2023-05-01T10:04:34.118Z,20.40
2023-05-01T10:07:13.080Z,20.50
2023-05-01T10:09:42.330Z,20.70
2023-05-01T10:12:11.173Z,21.00
2023-05-01T10:19:42.690Z,21.30
2023-05-01T10:22:10.064Z,21.20
2023-05-01T10:24:37.377Z,21.40
2023-05-01T10:27:08.318Z,21.50
2023-05-01T10:29:37.389Z,21.70
2023-05-01T10:32:06.864Z,21.80
2023-05-01T10:34:37.777Z,22.20
2023-05-01T10:43:28.087Z,21.90
2023-05-01T10:46:15.843Z,21.60
2023-05-01T10:48:58.434Z,21.40
2023-05-01T10:51:28.349Z,21.60
2023-05-01T10:54:23.988Z,22.20
2023-05-01T10:56:51.457Z,22.70
2023-05-01T10:59:20.088Z,23.00
2023-05-01T11:07:18.561Z,23.30
2023-05-01T11:09:48.421Z,23.20
2023-05-01T11:12:16.720Z,23.50
2023-05-01T11:15:05.176Z,23.80
2023-05-01T11:17:46.690Z,24.10
2023-05-01T11:20:34.798Z,24.50
2023-05-01T11:23:02.748Z,24.70
2023-05-01T11:30:39.389Z,24.70
2023-05-01T11:33:10.136Z,24.30
2023-05-01T11:35:39.137Z,23.10
2023-05-01T11:38:08.075Z,22.00
2023-05-01T11:40:35.971Z,21.10
2023-05-01T11:43:04.661Z,20.50
2023-05-01T11:45:33.128Z,20.00
2023-05-01T11:50:44.703Z,19.20
2023-05-01T11:53:16.156Z,18.90
2023-05-01T11:55:43.981Z,18.90
2023-05-01T11:58:11.663Z,19.20
2023-05-01T12:00:43.430Z,19.30
2023-05-01T12:03:12.931Z,19.00
2023-05-01T12:05:42.517Z,19.20
2023-05-01T12:11:12.661Z,19.60
2023-05-01T12:13:41.301Z,19.80
2023-05-01T12:16:10.596Z,19.80
2023-05-01T12:18:39.133Z,20.30
2023-05-01T12:21:15.291Z,20.80
2023-05-01T12:23:42.963Z,20.90
2023-05-01T12:26:18.735Z,21.20
2023-05-01T12:36:39.590Z,21.40
2023-05-01T12:39:11.374Z,21.50
2023-05-01T12:41:40.895Z,20.60
2023-05-01T12:44:22.272Z,20.70
2023-05-01T12:47:03.142Z,20.90
2023-05-01T12:49:32.499Z,21.40
2023-05-01T12:52:04.353Z,21.80
2023-05-01T12:59:41.989Z,21.50
2023-05-01T13:02:12.644Z,21.30
2023-05-01T13:04:48.778Z,21.10
2023-05-01T13:07:21.653Z,21.00
2023-05-01T13:09:53.112Z,20.80
2023-05-01T13:12:20.954Z,20.70
2023-05-01T13:14:50.388Z,20.80
2023-05-01T13:22:32.399Z,21.00
2023-05-01T13:25:02.841Z,21.00
2023-05-01T13:27:31.903Z,20.90
2023-05-01T13:30:01.830Z,20.70
2023-05-01T13:32:29.311Z,20.70
2023-05-01T13:35:00.353Z,20.60
2023-05-01T13:37:29.280Z,20.60
2023-05-01T13:45:05.858Z,20.60
2023-05-01T13:47:33.504Z,20.90
2023-05-01T13:50:01.307Z,20.80
2023-05-01T13:52:29.090Z,20.60
2023-05-01T13:54:57.052Z,20.60
2023-05-01T13:57:25.427Z,20.60
2023-05-01T13:59:52.906Z,20.80
2023-05-01T14:09:44.745Z,20.50
2023-05-01T14:12:14.016Z,20.20
2023-05-01T14:14:48.429Z,20.00
2023-05-01T14:17:15.765Z,20.00
2023-05-01T14:19:44.147Z,20.20
2023-05-01T14:22:12.550Z,20.10
2023-05-01T14:24:41.864Z,20.10
2023-05-01T14:30:07.657Z,20.00
2023-05-01T14:32:40.524Z,19.80
2023-05-01T14:35:10.964Z,19.50
2023-05-01T14:37:39.852Z,19.60
2023-05-01T14:40:14.815Z,19.60
2023-05-01T14:42:44.101Z,19.70
2023-05-01T14:45:14.566Z,19.60
2023-05-01T14:50:25.483Z,19.40
2023-05-01T14:52:57.387Z,19.40
2023-05-01T14:55:27.867Z,19.40
2023-05-01T14:57:55.238Z,19.40
2023-05-01T15:00:23.259Z,19.40
2023-05-01T15:02:52.172Z,19.30
2023-05-01T15:05:20.785Z,19.10
2023-05-01T15:11:07.147Z,19.30
2023-05-01T15:13:34.258Z,19.10
2023-05-01T15:16:01.614Z,19.20
2023-05-01T15:18:28.681Z,19.30
2023-05-01T15:20:55.994Z,19.30
2023-05-01T15:23:26.858Z,19.40
2023-05-01T15:25:54.383Z,19.50
2023-05-01T15:31:19.530Z,19.50
2023-05-01T15:33:47.403Z,19.40
2023-05-01T15:36:15.244Z,19.30
2023-05-01T15:38:42.484Z,19.20
2023-05-01T15:41:09.796Z,19.10
2023-05-01T15:43:37.973Z,19.20
2023-05-01T15:46:05.687Z,19.10
2023-05-01T15:55:30.691Z,19.20
2023-05-01T15:57:57.686Z,19.20
2023-05-01T16:00:24.959Z,19.20
2023-05-01T16:02:52.211Z,19.20
2023-05-01T16:05:21.702Z,19.30
2023-05-01T16:07:54.461Z,19.40
2023-05-01T16:10:21.905Z,19.10
2023-05-01T16:20:43.544Z,19.30
2023-05-01T16:23:11.754Z,19.40
2023-05-01T16:25:45.363Z,19.30
2023-05-01T16:28:12.647Z,19.40
2023-05-01T16:30:42.033Z,19.50
2023-05-01T16:33:17.557Z,19.80
2023-05-01T16:35:49.756Z,19.90
2023-05-01T16:41:08.421Z,19.10
2023-05-01T16:43:35.964Z,18.80
2023-05-01T16:46:04.066Z,18.40
2023-05-01T16:48:31.728Z,18.00
2023-05-01T16:50:58.659Z,17.90
2023-05-01T16:53:26.209Z,18.00
2023-05-01T16:55:53.133Z,18.10
2023-05-01T16:58:22.242Z,18.30
2023-05-01T17:03:30.660Z,18.40
2023-05-01T17:05:58.582Z,18.30
2023-05-01T17:08:26.432Z,18.30
2023-05-01T17:10:53.779Z,18.10
2023-05-01T17:13:21.249Z,18.20
2023-05-01T17:15:49.237Z,18.20
2023-05-01T17:18:21.336Z,18.30
2023-05-01T17:28:39.559Z,18.30
2023-05-01T17:31:08.070Z,18.40
2023-05-01T17:33:35.384Z,18.50
2023-05-01T17:36:03.435Z,19.00
2023-05-01T17:38:30.253Z,18.90
2023-05-01T17:40:57.824Z,18.80
2023-05-01T17:43:26.364Z,18.10
2023-05-01T17:53:44.287Z,15.80
2023-05-01T17:56:11.670Z,15.10
2023-05-01T17:58:38.888Z,15.00
2023-05-01T18:01:06.291Z,15.20
2023-05-01T18:03:35.611Z,15.10
2023-05-01T18:06:03.832Z,15.00
2023-05-01T18:08:32.441Z,14.80
2023-05-01T18:19:05.794Z,14.60
2023-05-01T18:21:36.279Z,14.50
2023-05-01T18:24:04.619Z,14.20
2023-05-01T18:26:32.399Z,14.20
2023-05-01T18:29:00.362Z,14.10
2023-05-01T18:31:28.544Z,14.10
2023-05-01T18:33:56.963Z,13.90
2023-05-01T18:44:14.854Z,13.80
2023-05-01T18:46:42.162Z,13.90
2023-05-01T18:49:09.154Z,13.90
2023-05-01T18:51:36.449Z,13.80
2023-05-01T18:54:05.213Z,13.80
2023-05-01T18:56:32.386Z,13.70
2023-05-01T18:58:59.918Z,13.60
2023-05-01T19:01:28.461Z,13.60
2023-05-01T19:09:00.793Z,13.60
2023-05-01T19:11:31.073Z,13.50
2023-05-01T19:13:58.790Z,13.40
2023-05-01T19:16:27.146Z,13.30
2023-05-01T19:18:55.406Z,13.30
2023-05-01T19:21:23.062Z,13.20
2023-05-01T19:23:50.412Z,13.10
2023-05-01T19:34:14.471Z,12.80
2023-05-01T19:36:43.048Z,12.80
2023-05-01T19:39:10.501Z,12.90
2023-05-01T19:41:39.869Z,12.80
2023-05-01T19:44:08.328Z,12.90
2023-05-01T19:46:36.412Z,13.10
2023-05-01T19:49:03.901Z,12.90
2023-05-01T19:54:26.582Z,13.00
2023-05-01T19:56:53.819Z,13.00
2023-05-01T19:59:21.865Z,13.00
2023-05-01T20:01:49.771Z,13.20
2023-05-01T20:04:17.184Z,13.20
2023-05-01T20:06:45.567Z,13.20
2023-05-01T20:09:13.221Z,13.10
2023-05-01T20:14:36.492Z,12.90
2023-05-01T20:17:06.947Z,12.90
2023-05-01T20:19:34.033Z,12.80
2023-05-01T20:22:01.270Z,12.70
2023-05-01T20:24:29.500Z,12.60
2023-05-01T20:26:59.339Z,12.60
2023-05-01T20:29:27.051Z,12.60
2023-05-01T20:36:58.895Z,12.50
2023-05-01T20:39:26.223Z,12.40
2023-05-01T20:41:54.128Z,12.40
2023-05-01T20:44:21.706Z,12.40
2023-05-01T20:46:49.252Z,12.50
2023-05-01T20:49:16.301Z,12.60
2023-05-01T20:51:43.371Z,12.60
2023-05-01T21:01:55.107Z,12.50
2023-05-01T21:04:23.971Z,12.40
2023-05-01T21:06:52.822Z,12.30
2023-05-01T21:09:19.986Z,12.40
2023-05-01T21:11:47.273Z,12.40
2023-05-01T21:14:15.630Z,12.40
2023-05-01T21:16:43.381Z,12.40
2023-05-01T21:27:10.163Z,12.50
2023-05-01T21:29:38.671Z,12.10
2023-05-01T21:32:06.313Z,12.00
2023-05-01T21:34:34.983Z,12.10
2023-05-01T21:37:02.602Z,12.00
2023-05-01T21:39:31.456Z,11.90
2023-05-01T21:41:58.963Z,11.80
2023-05-01T21:52:08.426Z,11.70
2023-05-01T21:54:36.707Z,11.70
2023-05-01T21:57:04.940Z,11.50
2023-05-01T21:59:35.593Z,11.50
2023-05-01T22:02:04.909Z,11.60
2023-05-01T22:04:32.049Z,11.60
2023-05-01T22:06:59.230Z,11.70
2023-05-01T22:12:34.227Z,11.50
2023-05-01T22:15:01.383Z,11.40
2023-05-01T22:17:29.496Z,11.30
2023-05-01T22:19:57.034Z,11.40
2023-05-01T22:22:24.530Z,11.40
2023-05-01T22:24:52.599Z,11.40
2023-05-01T22:27:19.846Z,11.40
2023-05-01T22:29:49.206Z,11.40
2023-05-01T22:37:21.265Z,11.40
2023-05-01T22:39:48.407Z,11.20
2023-05-01T22:42:16.145Z,11.20
2023-05-01T22:44:43.414Z,11.10
2023-05-01T22:47:10.603Z,11.10
2023-05-01T22:49:37.848Z,11.00
2023-05-01T22:52:05.821Z,10.90
2023-05-01T22:57:18.109Z,10.90
2023-05-01T22:59:45.784Z,10.70
2023-05-01T23:02:16.988Z,10.80
2023-05-01T23:04:44.595Z,10.70
2023-05-01T23:07:14.359Z,10.60
2023-05-01T23:09:42.021Z,10.70
2023-05-01T23:12:18.656Z,10.70
2023-05-01T23:17:40.842Z,10.70
2023-05-01T23:20:09.374Z,10.80
2023-05-01T23:22:37.720Z,10.70
2023-05-01T23:25:06.872Z,10.80
2023-05-01T23:27:36.041Z,10.70
2023-05-01T23:30:05.928Z,10.80
2023-05-01T23:32:34.469Z,10.70
2023-05-01T23:43:12.875Z,10.70
2023-05-01T23:45:40.061Z,10.60
2023-05-01T23:48:07.659Z,10.60
2023-05-01T23:50:35.344Z,10.60
2023-05-01T23:53:06.890Z,10.70
2023-05-01T23:55:35.345Z,10.60
2023-05-01T23:58:02.777Z,10.60
